Philadelphia, Pennsylvania
Traffic Map
Current Weather Conditions
Philadelphia, Pennsylvania
Clear
Clear
18°
Feels Like: 6°
Wind Chill: Ceiling: Unl
Heat Index: 18° Visibility: 10mi
Dew Point: Wind: 10mph
Humidity: 60% Direction: 360° (N)
Pressure: 30.44in Gusts: 0mph
Raw Report DataKPHL 060554Z 36009KT 10SM CLR M08/M14 A3044 RMK AO2 SLP308 T10781144 11056 21078 51020
Traffic Incident Summary
Active as of:
Severity:
Category:
InformationThere was an issue retrieving the traffic information for this location. Please try a different location or try again shortly.
Advertisements
Track Severe Weather on mobile